createdAt,value
2022-10-11T00:02:02.483Z,12.84
2022-10-11T00:04:29.057Z,12.76
2022-10-11T00:06:55.750Z,12.79
2022-10-11T00:09:22.517Z,12.80
2022-10-11T00:11:49.169Z,12.73
2022-10-11T00:14:16.004Z,12.85
2022-10-11T00:16:44.480Z,12.85
2022-10-11T00:19:11.602Z,12.85
2022-10-11T00:21:38.741Z,12.80
2022-10-11T00:24:06.055Z,12.94
2022-10-11T00:26:33.427Z,12.89
2022-10-11T00:29:00.043Z,12.75
2022-10-11T00:31:26.773Z,12.81
2022-10-11T00:33:54.615Z,12.81
2022-10-11T00:36:22.442Z,12.81
2022-10-11T00:38:49.153Z,12.88
2022-10-11T00:41:16.798Z,12.82
2022-10-11T00:43:44.230Z,12.79
2022-10-11T00:46:13.585Z,12.73
2022-10-11T00:48:41.528Z,12.74
2022-10-11T00:51:20.399Z,12.70
2022-10-11T00:53:50.746Z,12.72
2022-10-11T00:56:23.735Z,12.67
2022-10-11T00:58:50.804Z,12.74
2022-10-11T01:01:17.610Z,12.69
2022-10-11T01:03:45.022Z,12.70
2022-10-11T01:06:11.621Z,12.71
2022-10-11T01:08:38.814Z,12.69
2022-10-11T01:11:06.500Z,12.63
2022-10-11T01:13:57.993Z,12.66
2022-10-11T01:16:35.920Z,12.69
2022-10-11T01:19:13.119Z,12.71
2022-10-11T01:22:22.532Z,12.64
2022-10-11T01:25:02.202Z,12.74
2022-10-11T01:27:44.834Z,12.80
2022-10-11T01:30:36.794Z,12.80
2022-10-11T01:33:29.532Z,12.83
2022-10-11T01:36:11.771Z,12.77
2022-10-11T01:38:47.048Z,12.69
2022-10-11T01:41:25.796Z,12.75
2022-10-11T01:43:57.602Z,12.74
2022-10-11T01:46:25.167Z,12.73
2022-10-11T01:48:56.262Z,12.65
2022-10-11T01:51:26.817Z,12.75
2022-10-11T01:54:18.401Z,12.78
2022-10-11T01:56:44.953Z,12.66
2022-10-11T01:59:11.499Z,12.56
2022-10-11T02:02:02.619Z,12.59
2022-10-11T02:04:44.827Z,12.59
2022-10-11T02:07:25.334Z,12.55
2022-10-11T02:10:27.354Z,12.57
2022-10-11T02:13:01.934Z,12.55
2022-10-11T02:15:31.430Z,12.52
2022-10-11T02:18:02.315Z,12.53
2022-10-11T02:20:32.174Z,12.54
2022-10-11T02:23:08.189Z,12.58
2022-10-11T02:25:36.376Z,12.60
2022-10-11T02:28:12.627Z,12.65
2022-10-11T02:30:42.008Z,12.68
2022-10-11T02:33:13.357Z,12.68
2022-10-11T02:35:47.360Z,12.76
2022-10-11T02:38:39.304Z,12.74
2022-10-11T02:41:15.879Z,12.66
2022-10-11T02:43:51.885Z,12.64
2022-10-11T02:46:18.732Z,12.55
2022-10-11T02:48:45.284Z,12.52
2022-10-11T02:51:14.132Z,12.47
2022-10-11T02:53:40.710Z,12.52
2022-10-11T02:56:07.998Z,12.50
2022-10-11T02:58:34.957Z,12.47
2022-10-11T03:01:01.745Z,12.48
2022-10-11T03:03:28.358Z,12.48
2022-10-11T03:06:00.338Z,12.48
2022-10-11T03:08:27.180Z,12.49
2022-10-11T03:10:53.807Z,12.47
2022-10-11T03:13:20.794Z,12.49
2022-10-11T03:16:02.337Z,12.55
2022-10-11T03:18:30.962Z,12.49
2022-10-11T03:20:57.670Z,12.54
2022-10-11T03:23:24.296Z,12.58
2022-10-11T03:25:52.082Z,12.53
2022-10-11T03:28:19.515Z,12.44
2022-10-11T03:30:50.362Z,12.40
2022-10-11T03:33:17.614Z,12.45
2022-10-11T03:35:48.267Z,12.48
2022-10-11T03:38:18.428Z,12.51
2022-10-11T03:40:45.048Z,12.43
2022-10-11T03:43:12.162Z,12.38
2022-10-11T03:45:39.014Z,12.36
2022-10-11T03:48:05.850Z,12.37
2022-10-11T03:50:32.435Z,12.30
2022-10-11T03:52:59.125Z,12.26
2022-10-11T03:55:26.075Z,12.23
2022-10-11T03:57:52.701Z,12.22
2022-10-11T04:00:20.244Z,12.15
2022-10-11T04:02:46.883Z,12.17
2022-10-11T04:05:13.831Z,12.07
2022-10-11T04:07:41.227Z,12.09
2022-10-11T04:10:08.285Z,12.05
2022-10-11T04:12:36.607Z,12.04
2022-10-11T04:15:03.460Z,12.01
2022-10-11T04:17:30.050Z,11.97
2022-10-11T04:19:56.709Z,11.97
2022-10-11T04:22:23.408Z,12.00
2022-10-11T04:24:50.072Z,11.92
2022-10-11T04:27:16.639Z,11.86
2022-10-11T04:29:43.371Z,11.80
2022-10-11T04:32:09.909Z,11.79
2022-10-11T04:34:36.570Z,11.71
2022-10-11T04:37:03.151Z,11.79
2022-10-11T04:39:29.873Z,11.77
2022-10-11T04:41:56.506Z,11.76
2022-10-11T04:44:23.194Z,11.84
2022-10-11T04:46:49.721Z,11.76
2022-10-11T04:49:16.383Z,11.81
2022-10-11T04:51:43.143Z,11.84
2022-10-11T04:54:09.803Z,11.78
2022-10-11T04:56:36.374Z,11.90
2022-10-11T04:59:03.103Z,11.92
2022-10-11T05:01:29.658Z,11.98
2022-10-11T05:03:56.367Z,12.01
2022-10-11T05:06:23.000Z,12.02
2022-10-11T05:08:49.655Z,12.08
2022-10-11T05:11:17.037Z,12.06
2022-10-11T05:13:45.219Z,12.05
2022-10-11T05:16:13.308Z,12.13
2022-10-11T05:18:40.685Z,12.14
2022-10-11T05:21:14.978Z,12.13
2022-10-11T05:23:42.330Z,12.13
2022-10-11T05:26:09.357Z,12.11
2022-10-11T05:28:36.557Z,12.08
2022-10-11T05:31:03.769Z,12.12
2022-10-11T05:33:31.078Z,12.09
2022-10-11T05:35:57.758Z,12.02
2022-10-11T05:38:24.370Z,12.00
2022-10-11T05:40:51.228Z,11.97
2022-10-11T05:43:18.412Z,11.98
2022-10-11T05:45:46.433Z,11.98
2022-10-11T05:48:13.095Z,12.02
2022-10-11T05:50:39.862Z,11.98
2022-10-11T05:53:06.882Z,12.06
2022-10-11T05:55:42.095Z,11.99
2022-10-11T05:58:12.791Z,11.92
2022-10-11T06:00:39.483Z,11.77
2022-10-11T06:03:07.908Z,11.70
2022-10-11T06:05:35.773Z,11.69
2022-10-11T06:08:06.402Z,11.67
2022-10-11T06:10:33.496Z,11.69
2022-10-11T06:13:00.378Z,11.75
2022-10-11T06:15:27.524Z,11.73
2022-10-11T06:17:54.205Z,11.79
2022-10-11T06:20:20.882Z,11.84
2022-10-11T06:22:47.445Z,11.91
2022-10-11T06:25:14.208Z,11.92
2022-10-11T06:27:40.818Z,11.90
2022-10-11T06:30:08.302Z,12.02
2022-10-11T06:32:35.105Z,12.00
2022-10-11T06:35:03.375Z,11.92
2022-10-11T06:37:30.420Z,11.88
2022-10-11T06:39:57.125Z,11.97
2022-10-11T06:42:23.689Z,11.96
2022-10-11T06:44:50.319Z,12.08
2022-10-11T06:47:16.933Z,12.13
2022-10-11T06:49:43.580Z,12.13
2022-10-11T06:52:10.215Z,12.18
2022-10-11T06:54:40.069Z,12.18
2022-10-11T06:57:10.080Z,12.18
2022-10-11T06:59:36.721Z,12.23
2022-10-11T07:02:03.438Z,12.19
2022-10-11T07:04:30.187Z,12.14
2022-10-11T07:06:57.016Z,12.26
2022-10-11T07:09:23.705Z,12.31
2022-10-11T07:11:50.390Z,12.30
2022-10-11T07:14:17.002Z,12.34
2022-10-11T07:16:43.636Z,12.34
2022-10-11T07:19:10.419Z,12.33
2022-10-11T07:21:37.165Z,12.33
2022-10-11T07:24:04.018Z,12.37
2022-10-11T07:26:37.455Z,12.42
2022-10-11T07:29:06.815Z,12.40
2022-10-11T07:31:33.339Z,12.44
2022-10-11T07:34:00.084Z,12.29
2022-10-11T07:36:26.737Z,12.42
2022-10-11T07:38:53.423Z,12.46
2022-10-11T07:41:20.578Z,12.50
2022-10-11T07:43:49.519Z,12.56
2022-10-11T07:46:17.284Z,12.58
2022-10-11T07:48:43.988Z,12.60
2022-10-11T07:51:17.041Z,12.62
2022-10-11T07:53:48.956Z,12.63
2022-10-11T07:56:21.906Z,12.65
2022-10-11T07:58:54.183Z,12.65
2022-10-11T08:01:21.682Z,12.65
2022-10-11T08:03:49.604Z,12.65
2022-10-11T08:06:20.526Z,12.69
2022-10-11T08:08:47.748Z,12.73
2022-10-11T08:11:26.510Z,12.72
2022-10-11T08:13:53.662Z,12.77
2022-10-11T08:16:21.274Z,12.78
2022-10-11T08:18:48.094Z,12.85
2022-10-11T08:21:17.688Z,12.85
2022-10-11T08:23:44.756Z,12.90
2022-10-11T08:26:11.418Z,12.92
2022-10-11T08:28:38.354Z,12.91
2022-10-11T08:31:05.079Z,12.98
2022-10-11T08:33:31.791Z,12.99
2022-10-11T08:35:58.930Z,13.03
2022-10-11T08:38:25.635Z,13.08
2022-10-11T08:40:55.629Z,13.11
2022-10-11T08:43:43.995Z,13.12
2022-10-11T08:46:13.034Z,13.16
2022-10-11T08:48:46.352Z,13.18
2022-10-11T08:51:45.283Z,13.21
2022-10-11T08:54:26.069Z,13.28
2022-10-11T08:56:52.831Z,13.32
2022-10-11T08:59:45.758Z,13.37
2022-10-11T09:02:25.301Z,13.41
2022-10-11T09:04:54.718Z,13.49
2022-10-11T09:07:30.418Z,13.49
2022-10-11T09:10:11.564Z,13.67
2022-10-11T09:12:56.987Z,13.71
2022-10-11T09:15:29.057Z,13.82
2022-10-11T09:18:10.444Z,13.85
2022-10-11T09:21:03.330Z,13.89
2022-10-11T09:23:50.953Z,13.88
2022-10-11T09:26:25.656Z,13.91
2022-10-11T09:29:21.407Z,13.91
2022-10-11T09:31:56.784Z,14.08
2022-10-11T09:34:27.355Z,14.23
2022-10-11T09:37:11.352Z,14.39
2022-10-11T09:39:45.759Z,14.49
2022-10-11T09:42:12.679Z,14.42
2022-10-11T09:44:45.361Z,14.32
2022-10-11T09:47:16.772Z,14.25
2022-10-11T09:50:14.129Z,14.28
2022-10-11T09:52:55.431Z,14.33
2022-10-11T09:55:33.826Z,14.48
2022-10-11T09:58:01.254Z,14.50
2022-10-11T10:00:33.466Z,14.69
2022-10-11T10:03:03.264Z,14.77
2022-10-11T10:05:36.725Z,14.89
2022-10-11T10:08:23.894Z,14.89
2022-10-11T10:11:02.605Z,14.94
2022-10-11T10:13:52.068Z,14.98
2022-10-11T10:16:23.676Z,15.06
2022-10-11T10:18:55.337Z,15.18
2022-10-11T10:21:36.042Z,15.15
2022-10-11T10:24:20.589Z,15.17
2022-10-11T10:27:06.108Z,15.19
2022-10-11T10:29:33.070Z,15.23
2022-10-11T10:32:14.257Z,15.32
2022-10-11T10:35:21.386Z,15.40
2022-10-11T10:38:12.126Z,15.39
2022-10-11T10:40:53.806Z,15.49
2022-10-11T10:43:24.004Z,15.52
2022-10-11T10:46:11.984Z,15.55
2022-10-11T10:52:03.111Z,15.51
2022-10-11T10:54:52.486Z,15.41
2022-10-11T10:57:27.725Z,15.36
2022-10-11T11:00:15.680Z,15.36
2022-10-11T11:03:06.536Z,15.36
2022-10-11T11:05:45.643Z,15.32
2022-10-11T11:08:21.129Z,15.31
2022-10-11T11:10:59.097Z,15.44
2022-10-11T11:13:54.175Z,15.49
2022-10-11T11:16:38.209Z,15.50
2022-10-11T11:19:26.988Z,15.48
2022-10-11T11:22:03.609Z,15.57
2022-10-11T11:24:57.471Z,15.64
2022-10-11T11:27:45.502Z,15.82
2022-10-11T11:30:20.042Z,15.86
2022-10-11T11:33:03.651Z,16.03
2022-10-11T11:35:36.019Z,16.06
2022-10-11T11:38:14.326Z,16.04
2022-10-11T11:40:45.457Z,16.10
2022-10-11T11:43:28.149Z,16.09
2022-10-11T11:46:05.027Z,16.11
2022-10-11T11:48:31.953Z,16.19
2022-10-11T11:51:37.329Z,16.23
2022-10-11T11:54:42.267Z,16.25
2022-10-11T11:57:24.200Z,16.30
2022-10-11T11:59:59.846Z,16.40
2022-10-11T12:02:29.337Z,16.51
2022-10-11T12:04:57.204Z,16.52
2022-10-11T12:07:25.501Z,16.63
2022-10-11T12:09:55.244Z,16.56
2022-10-11T12:12:33.084Z,16.70
2022-10-11T12:15:17.796Z,16.82
2022-10-11T12:17:56.451Z,16.90
2022-10-11T12:20:28.951Z,16.98
2022-10-11T12:23:00.040Z,17.02
2022-10-11T12:25:26.734Z,17.08
2022-10-11T12:27:55.950Z,17.10
2022-10-11T12:30:44.454Z,17.15
2022-10-11T12:33:45.265Z,17.14
2022-10-11T12:36:40.773Z,17.23
2022-10-11T12:39:19.851Z,17.40
2022-10-11T12:41:53.501Z,17.52
2022-10-11T12:44:28.762Z,17.56
2022-10-11T12:46:55.477Z,17.49
2022-10-11T12:49:35.495Z,17.46
2022-10-11T12:52:15.986Z,17.60
2022-10-11T12:55:03.844Z,17.66
2022-10-11T12:57:33.170Z,17.78
2022-10-11T13:00:26.282Z,17.79
2022-10-11T13:02:52.978Z,17.81
2022-10-11T13:05:22.267Z,17.92
2022-10-11T13:07:50.068Z,18.00
2022-10-11T13:10:26.047Z,17.94
2022-10-11T13:12:54.189Z,17.95
2022-10-11T13:15:22.949Z,18.01
2022-10-11T13:17:52.779Z,18.08
2022-10-11T13:20:24.649Z,18.13
2022-10-11T13:22:53.743Z,18.01
2022-10-11T13:25:23.557Z,18.11
2022-10-11T13:27:53.492Z,18.17
2022-10-11T13:30:28.403Z,18.29
2022-10-11T13:32:56.168Z,18.42
2022-10-11T13:35:35.208Z,18.59
2022-10-11T13:38:02.749Z,18.63
2022-10-11T13:40:30.850Z,18.73
2022-10-11T13:42:58.789Z,18.65
2022-10-11T13:45:28.147Z,18.76
2022-10-11T13:47:55.220Z,18.85
2022-10-11T13:50:32.225Z,18.92
2022-10-11T13:53:10.669Z,19.02
2022-10-11T13:55:53.440Z,19.05
2022-10-11T13:58:27.310Z,19.12
2022-10-11T14:00:57.650Z,19.22
2022-10-11T14:03:40.514Z,19.17
2022-10-11T14:06:07.918Z,19.30
2022-10-11T14:08:46.636Z,19.30
2022-10-11T14:11:14.851Z,19.28
2022-10-11T14:13:47.263Z,19.26
2022-10-11T14:16:19.799Z,19.22
2022-10-11T14:18:52.258Z,19.16
2022-10-11T14:21:45.346Z,19.08
2022-10-11T14:24:13.086Z,18.96
2022-10-11T14:26:43.637Z,19.05
2022-10-11T14:29:31.185Z,19.03
2022-10-11T14:32:30.731Z,18.96
2022-10-11T14:34:58.277Z,19.07
2022-10-11T14:37:25.644Z,19.07
2022-10-11T14:39:52.440Z,19.20
2022-10-11T14:42:19.249Z,19.23
2022-10-11T14:44:45.887Z,19.34
2022-10-11T14:47:17.357Z,19.36
2022-10-11T14:49:45.306Z,19.27
2022-10-11T14:52:13.441Z,19.18
2022-10-11T14:54:40.888Z,19.14
2022-10-11T14:57:10.845Z,19.08
2022-10-11T14:59:38.255Z,19.05
2022-10-11T15:02:07.404Z,18.97
2022-10-11T15:04:34.111Z,18.93
2022-10-11T15:07:00.943Z,18.85
2022-10-11T15:09:27.834Z,18.65
2022-10-11T15:11:55.795Z,18.69
2022-10-11T15:14:23.802Z,18.65
2022-10-11T15:16:50.584Z,18.70
2022-10-11T15:19:22.983Z,18.65
2022-10-11T15:21:50.059Z,18.71
2022-10-11T15:24:20.142Z,18.72
2022-10-11T15:26:47.489Z,18.73
2022-10-11T15:29:16.401Z,18.53
2022-10-11T15:31:43.221Z,18.47
2022-10-11T15:34:11.141Z,18.38
2022-10-11T15:36:38.125Z,18.18
2022-10-11T15:39:22.407Z,18.11
2022-10-11T15:41:49.214Z,17.98
2022-10-11T15:44:16.033Z,17.87
2022-10-11T15:46:43.803Z,17.72
2022-10-11T15:49:13.895Z,17.71
2022-10-11T15:51:40.589Z,17.66
2022-10-11T15:54:07.357Z,17.59
2022-10-11T15:56:34.104Z,17.56
2022-10-11T15:59:00.731Z,17.52
2022-10-11T16:01:27.582Z,17.38
2022-10-11T16:03:54.215Z,17.28
2022-10-11T16:06:20.883Z,17.25
2022-10-11T16:08:48.030Z,17.20
2022-10-11T16:11:15.020Z,17.15
2022-10-11T16:13:41.660Z,17.15
2022-10-11T16:16:09.629Z,17.06
2022-10-11T16:18:36.630Z,17.06
2022-10-11T16:21:08.415Z,17.04
2022-10-11T16:23:35.550Z,17.00
2022-10-11T16:26:05.817Z,16.94
2022-10-11T16:28:33.438Z,16.94
2022-10-11T16:31:00.695Z,16.81
2022-10-11T16:33:27.774Z,16.85
2022-10-11T16:36:14.300Z,16.87
2022-10-11T16:38:41.424Z,16.88
2022-10-11T16:41:07.971Z,16.79
2022-10-11T16:43:35.431Z,16.83
2022-10-11T16:46:02.549Z,16.75
2022-10-11T16:48:29.524Z,16.67
2022-10-11T16:51:05.457Z,16.65
2022-10-11T16:53:34.263Z,16.59
2022-10-11T16:56:04.296Z,16.53
2022-10-11T16:58:31.250Z,16.59
2022-10-11T17:00:57.886Z,16.50
2022-10-11T17:03:24.635Z,16.42
2022-10-11T17:05:51.278Z,16.38
2022-10-11T17:08:18.221Z,16.41
2022-10-11T17:10:47.300Z,16.39
2022-10-11T17:13:14.137Z,16.41
2022-10-11T17:15:40.744Z,16.34
2022-10-11T17:18:07.691Z,16.32
2022-10-11T17:20:34.911Z,16.29
2022-10-11T17:23:01.600Z,16.31
2022-10-11T17:25:28.271Z,16.15
2022-10-11T17:27:56.186Z,16.12
2022-10-11T17:30:24.076Z,16.09
2022-10-11T17:32:51.850Z,16.05
2022-10-11T17:35:19.089Z,16.05
2022-10-11T17:37:45.768Z,16.03
2022-10-11T17:40:12.494Z,16.00
2022-10-11T17:42:39.141Z,16.05
2022-10-11T17:45:06.196Z,15.98
2022-10-11T17:47:33.443Z,15.95
2022-10-11T17:50:00.010Z,15.95
2022-10-11T17:52:26.644Z,15.92
2022-10-11T17:54:53.210Z,15.90
2022-10-11T17:57:20.392Z,15.89
2022-10-11T17:59:47.107Z,15.90
2022-10-11T18:02:14.626Z,15.88
2022-10-11T18:04:41.277Z,15.87
2022-10-11T18:07:08.011Z,15.91
2022-10-11T18:09:34.953Z,15.83
2022-10-11T18:12:01.619Z,15.80
2022-10-11T18:14:28.180Z,15.74
2022-10-11T18:16:54.838Z,15.70
2022-10-11T18:19:21.504Z,15.62
2022-10-11T18:21:48.100Z,15.63
2022-10-11T18:24:16.659Z,15.59
2022-10-11T18:26:45.006Z,15.52
2022-10-11T18:29:13.082Z,15.47
2022-10-11T18:31:40.850Z,15.49
2022-10-11T18:34:10.704Z,15.51
2022-10-11T18:36:38.104Z,15.52
2022-10-11T18:39:07.166Z,15.42
2022-10-11T18:41:35.637Z,15.39
2022-10-11T18:44:05.480Z,15.40
2022-10-11T18:46:32.635Z,15.37
2022-10-11T18:49:01.956Z,15.42
2022-10-11T18:51:31.357Z,15.43
2022-10-11T18:53:58.840Z,15.43
2022-10-11T18:56:26.898Z,15.43
2022-10-11T18:58:55.608Z,15.47
2022-10-11T19:01:28.314Z,15.39
2022-10-11T19:03:57.315Z,15.36
2022-10-11T19:06:33.170Z,15.33
2022-10-11T19:09:05.596Z,15.31
2022-10-11T19:11:33.079Z,15.33
2022-10-11T19:14:08.798Z,15.32
2022-10-11T19:16:38.094Z,15.30
2022-10-11T19:19:05.250Z,15.29
2022-10-11T19:21:32.511Z,15.23
2022-10-11T19:23:59.183Z,15.17
2022-10-11T19:26:38.212Z,15.12
2022-10-11T19:29:19.839Z,15.03
2022-10-11T19:31:52.885Z,15.09
2022-10-11T19:34:20.571Z,15.02
2022-10-11T19:36:50.014Z,15.01
2022-10-11T19:39:18.320Z,14.93
2022-10-11T19:41:45.722Z,14.96
2022-10-11T19:44:13.406Z,15.00
2022-10-11T19:46:55.955Z,14.98
2022-10-11T19:49:25.224Z,14.93
2022-10-11T19:51:55.766Z,14.92
2022-10-11T19:54:23.090Z,14.92
2022-10-11T19:56:49.750Z,15.00
2022-10-11T19:59:17.451Z,14.96
2022-10-11T20:01:49.351Z,14.96
2022-10-11T20:04:39.529Z,14.96
2022-10-11T20:07:04.798Z,14.90
2022-10-11T20:09:31.431Z,14.86
2022-10-11T20:11:58.870Z,14.75
2022-10-11T20:14:25.733Z,14.79
2022-10-11T20:16:52.930Z,14.75
2022-10-11T20:19:20.020Z,14.83
2022-10-11T20:21:47.806Z,14.89
2022-10-11T20:24:14.515Z,14.83
2022-10-11T20:26:41.135Z,14.67
2022-10-11T20:29:07.755Z,14.78
2022-10-11T20:31:38.301Z,14.70
2022-10-11T20:34:07.126Z,14.74
2022-10-11T20:36:35.927Z,14.69
2022-10-11T20:39:04.058Z,14.59
2022-10-11T20:41:34.315Z,14.57
2022-10-11T20:44:02.012Z,14.56
2022-10-11T20:46:31.540Z,14.58
2022-10-11T20:49:03.789Z,14.55
2022-10-11T20:51:32.515Z,14.52
2022-10-11T20:54:00.669Z,14.55
2022-10-11T20:56:28.298Z,14.56
2022-10-11T20:58:57.091Z,14.56
2022-10-11T21:01:29.524Z,14.51
2022-10-11T21:04:01.250Z,14.53
2022-10-11T21:06:28.893Z,14.56
2022-10-11T21:08:56.445Z,14.51
2022-10-11T21:11:27.769Z,14.36
2022-10-11T21:13:59.724Z,14.39
2022-10-11T21:16:27.445Z,14.34
2022-10-11T21:18:55.904Z,14.38
2022-10-11T21:21:23.944Z,14.34
2022-10-11T21:23:54.140Z,14.31
2022-10-11T21:26:20.814Z,14.34
2022-10-11T21:28:47.565Z,14.26
2022-10-11T21:31:17.328Z,14.35
2022-10-11T21:33:45.204Z,14.27
2022-10-11T21:36:17.392Z,14.24
2022-10-11T21:38:44.326Z,14.17
2022-10-11T21:41:17.110Z,14.23
2022-10-11T21:43:44.462Z,14.27
2022-10-11T21:46:17.650Z,14.22
2022-10-11T21:48:44.570Z,14.20
2022-10-11T21:51:31.022Z,14.15
2022-10-11T21:54:00.419Z,14.18
2022-10-11T21:56:28.456Z,14.20
2022-10-11T21:58:55.900Z,14.20
2022-10-11T22:01:22.977Z,14.15
2022-10-11T22:03:50.265Z,14.15
2022-10-11T22:06:17.107Z,14.16
2022-10-11T22:08:43.896Z,14.24
2022-10-11T22:11:11.228Z,14.15
2022-10-11T22:13:38.302Z,14.10
2022-10-11T22:16:06.654Z,14.09
2022-10-11T22:18:33.912Z,14.12
2022-10-11T22:21:08.425Z,14.12
2022-10-11T22:23:35.773Z,14.16
2022-10-11T22:26:26.980Z,14.15
2022-10-11T22:28:53.737Z,14.11
2022-10-11T22:31:21.694Z,13.99
2022-10-11T22:33:49.239Z,13.99
2022-10-11T22:36:19.335Z,13.95
2022-10-11T22:38:46.895Z,14.07
2022-10-11T22:41:13.763Z,14.10
2022-10-11T22:43:40.552Z,14.07
2022-10-11T22:46:08.083Z,13.95
2022-10-11T22:48:35.468Z,14.04
2022-10-11T22:51:02.510Z,14.02
2022-10-11T22:53:29.611Z,13.94
2022-10-11T22:55:56.526Z,13.93
2022-10-11T22:58:23.143Z,13.91
2022-10-11T23:00:49.756Z,13.90
2022-10-11T23:03:17.480Z,13.94
2022-10-11T23:05:44.110Z,13.95
2022-10-11T23:08:10.782Z,13.94
2022-10-11T23:10:40.450Z,13.85
2022-10-11T23:13:07.388Z,13.85
2022-10-11T23:15:33.969Z,13.90
2022-10-11T23:18:00.613Z,13.92
2022-10-11T23:20:27.282Z,13.87
2022-10-11T23:22:53.880Z,13.84
2022-10-11T23:25:20.496Z,13.84
2022-10-11T23:27:47.090Z,13.85
2022-10-11T23:30:14.062Z,13.83
2022-10-11T23:32:40.760Z,13.85
2022-10-11T23:35:07.796Z,13.82
2022-10-11T23:37:34.617Z,13.85
2022-10-11T23:40:01.528Z,13.87
2022-10-11T23:42:28.178Z,13.90
2022-10-11T23:44:54.712Z,13.94
2022-10-11T23:47:21.395Z,13.92
2022-10-11T23:49:48.029Z,13.91
2022-10-11T23:52:14.754Z,13.91
2022-10-11T23:54:41.431Z,13.95
2022-10-11T23:57:08.226Z,13.97
2022-10-11T23:59:34.769Z,14.00
